sensor_id;sensor_type;location;lat;lon;timestamp;P1;durP1;ratioP1;P2;durP2;ratioP2
44746;SDS011;30472;49.490;10.972;2023-08-21T00:02:18;11.45;;;10.32;;
44746;SDS011;30472;49.490;10.972;2023-08-21T00:04:43;11.57;;;10.25;;
44746;SDS011;30472;49.490;10.972;2023-08-21T00:07:09;11.43;;;10.38;;
44746;SDS011;30472;49.490;10.972;2023-08-21T00:09:35;13.20;;;11.35;;
44746;SDS011;30472;49.490;10.972;2023-08-21T00:12:01;11.27;;;10.18;;
44746;SDS011;30472;49.490;10.972;2023-08-21T00:14:26;11.52;;;10.43;;
44746;SDS011;30472;49.490;10.972;2023-08-21T00:16:52;11.05;;;9.95;;
44746;SDS011;30472;49.490;10.972;2023-08-21T00:19:17;12.18;;;10.95;;
44746;SDS011;30472;49.490;10.972;2023-08-21T00:21:43;12.95;;;10.10;;
44746;SDS011;30472;49.490;10.972;2023-08-21T00:24:08;13.07;;;11.77;;
44746;SDS011;30472;49.490;10.972;2023-08-21T00:26:34;11.00;;;10.05;;
44746;SDS011;30472;49.490;10.972;2023-08-21T00:28:59;15.38;;;10.77;;
44746;SDS011;30472;49.490;10.972;2023-08-21T00:31:25;12.85;;;11.27;;
44746;SDS011;30472;49.490;10.972;2023-08-21T00:33:50;15.45;;;11.07;;
44746;SDS011;30472;49.490;10.972;2023-08-21T00:36:16;12.48;;;11.18;;
44746;SDS011;30472;49.490;10.972;2023-08-21T00:38:41;13.45;;;11.60;;
44746;SDS011;30472;49.490;10.972;2023-08-21T00:41:08;12.07;;;10.98;;
44746;SDS011;30472;49.490;10.972;2023-08-21T00:43:33;13.23;;;10.63;;
44746;SDS011;30472;49.490;10.972;2023-08-21T00:45:59;13.00;;;11.52;;
44746;SDS011;30472;49.490;10.972;2023-08-21T00:48:25;12.85;;;11.02;;
44746;SDS011;30472;49.490;10.972;2023-08-21T00:50:50;12.82;;;11.40;;
44746;SDS011;30472;49.490;10.972;2023-08-21T00:53:16;13.02;;;11.70;;
44746;SDS011;30472;49.490;10.972;2023-08-21T00:55:42;13.07;;;11.60;;
44746;SDS011;30472;49.490;10.972;2023-08-21T00:58:09;12.95;;;11.65;;
44746;SDS011;30472;49.490;10.972;2023-08-21T01:00:36;14.30;;;11.55;;
44746;SDS011;30472;49.490;10.972;2023-08-21T01:03:03;14.30;;;12.60;;
44746;SDS011;30472;49.490;10.972;2023-08-21T01:05:28;13.43;;;12.23;;
44746;SDS011;30472;49.490;10.972;2023-08-21T01:07:59;13.18;;;11.88;;
44746;SDS011;30472;49.490;10.972;2023-08-21T01:15:34;13.35;;;11.70;;
44746;SDS011;30472;49.490;10.972;2023-08-21T01:18:02;12.68;;;11.43;;
44746;SDS011;30472;49.490;10.972;2023-08-21T01:20:28;15.90;;;11.93;;
44746;SDS011;30472;49.490;10.972;2023-08-21T01:22:54;14.10;;;11.07;;
44746;SDS011;30472;49.490;10.972;2023-08-21T01:25:20;12.65;;;11.45;;
44746;SDS011;30472;49.490;10.972;2023-08-21T01:27:47;13.15;;;11.50;;
44746;SDS011;30472;49.490;10.972;2023-08-21T01:30:14;14.30;;;12.80;;
44746;SDS011;30472;49.490;10.972;2023-08-21T01:32:59;12.50;;;11.30;;
44746;SDS011;30472;49.490;10.972;2023-08-21T01:35:36;13.27;;;11.90;;
44746;SDS011;30472;49.490;10.972;2023-08-21T01:38:02;17.05;;;12.88;;
44746;SDS011;30472;49.490;10.972;2023-08-21T01:40:28;12.80;;;11.70;;
44746;SDS011;30472;49.490;10.972;2023-08-21T01:42:54;13.40;;;12.10;;
44746;SDS011;30472;49.490;10.972;2023-08-21T01:45:20;13.88;;;12.57;;
44746;SDS011;30472;49.490;10.972;2023-08-21T01:47:46;14.05;;;12.40;;
44746;SDS011;30472;49.490;10.972;2023-08-21T01:50:12;17.70;;;12.70;;
44746;SDS011;30472;49.490;10.972;2023-08-21T01:52:37;14.00;;;12.70;;
44746;SDS011;30472;49.490;10.972;2023-08-21T01:55:03;13.48;;;12.18;;
44746;SDS011;30472;49.490;10.972;2023-08-21T01:57:29;13.48;;;12.18;;
44746;SDS011;30472;49.490;10.972;2023-08-21T01:59:55;14.82;;;13.20;;
44746;SDS011;30472;49.490;10.972;2023-08-21T02:02:20;15.65;;;12.90;;
44746;SDS011;30472;49.490;10.972;2023-08-21T02:04:46;14.57;;;12.57;;
44746;SDS011;30472;49.490;10.972;2023-08-21T02:07:11;15.07;;;13.52;;
44746;SDS011;30472;49.490;10.972;2023-08-21T02:09:37;14.30;;;12.88;;
44746;SDS011;30472;49.490;10.972;2023-08-21T02:12:03;15.07;;;13.63;;
44746;SDS011;30472;49.490;10.972;2023-08-21T02:14:29;13.90;;;12.50;;
44746;SDS011;30472;49.490;10.972;2023-08-21T02:16:54;15.40;;;13.95;;
44746;SDS011;30472;49.490;10.972;2023-08-21T02:19:20;15.65;;;13.63;;
44746;SDS011;30472;49.490;10.972;2023-08-21T02:21:45;16.98;;;13.48;;
44746;SDS011;30472;49.490;10.972;2023-08-21T02:24:11;15.23;;;13.50;;
44746;SDS011;30472;49.490;10.972;2023-08-21T02:26:36;16.58;;;14.90;;
44746;SDS011;30472;49.490;10.972;2023-08-21T02:29:02;15.35;;;13.93;;
44746;SDS011;30472;49.490;10.972;2023-08-21T02:31:28;16.77;;;14.82;;
44746;SDS011;30472;49.490;10.972;2023-08-21T02:33:54;15.70;;;14.07;;
44746;SDS011;30472;49.490;10.972;2023-08-21T02:36:19;17.98;;;14.35;;
44746;SDS011;30472;49.490;10.972;2023-08-21T02:38:45;18.27;;;14.15;;
44746;SDS011;30472;49.490;10.972;2023-08-21T02:41:10;14.45;;;13.05;;
44746;SDS011;30472;49.490;10.972;2023-08-21T02:43:36;15.80;;;14.20;;
44746;SDS011;30472;49.490;10.972;2023-08-21T02:46:01;16.27;;;14.75;;
44746;SDS011;30472;49.490;10.972;2023-08-21T02:48:27;15.05;;;13.55;;
44746;SDS011;30472;49.490;10.972;2023-08-21T02:50:53;17.17;;;15.38;;
44746;SDS011;30472;49.490;10.972;2023-08-21T02:53:18;16.35;;;14.70;;
44746;SDS011;30472;49.490;10.972;2023-08-21T02:55:44;16.88;;;13.82;;
44746;SDS011;30472;49.490;10.972;2023-08-21T02:58:09;17.25;;;14.30;;
44746;SDS011;30472;49.490;10.972;2023-08-21T03:00:35;16.05;;;14.55;;
44746;SDS011;30472;49.490;10.972;2023-08-21T03:03:01;16.45;;;14.65;;
44746;SDS011;30472;49.490;10.972;2023-08-21T03:05:26;17.58;;;15.73;;
44746;SDS011;30472;49.490;10.972;2023-08-21T03:07:52;17.38;;;15.40;;
44746;SDS011;30472;49.490;10.972;2023-08-21T03:10:18;19.42;;;17.50;;
44746;SDS011;30472;49.490;10.972;2023-08-21T03:12:44;19.60;;;17.30;;
44746;SDS011;30472;49.490;10.972;2023-08-21T03:15:09;19.65;;;17.63;;
44746;SDS011;30472;49.490;10.972;2023-08-21T03:17:35;19.92;;;16.95;;
44746;SDS011;30472;49.490;10.972;2023-08-21T03:20:01;20.60;;;18.27;;
44746;SDS011;30472;49.490;10.972;2023-08-21T03:22:29;19.95;;;17.88;;
44746;SDS011;30472;49.490;10.972;2023-08-21T03:24:56;21.30;;;18.40;;
44746;SDS011;30472;49.490;10.972;2023-08-21T03:27:22;20.45;;;18.42;;
44746;SDS011;30472;49.490;10.972;2023-08-21T03:29:48;19.83;;;17.83;;
44746;SDS011;30472;49.490;10.972;2023-08-21T03:32:15;22.50;;;18.52;;
44746;SDS011;30472;49.490;10.972;2023-08-21T03:34:41;21.02;;;19.13;;
44746;SDS011;30472;49.490;10.972;2023-08-21T03:37:07;20.55;;;18.45;;
44746;SDS011;30472;49.490;10.972;2023-08-21T03:39:33;21.88;;;19.58;;
44746;SDS011;30472;49.490;10.972;2023-08-21T03:41:58;22.67;;;20.33;;
44746;SDS011;30472;49.490;10.972;2023-08-21T03:44:24;22.77;;;20.55;;
44746;SDS011;30472;49.490;10.972;2023-08-21T03:46:49;23.27;;;20.88;;
44746;SDS011;30472;49.490;10.972;2023-08-21T03:49:15;22.92;;;20.60;;
44746;SDS011;30472;49.490;10.972;2023-08-21T03:51:40;23.67;;;21.40;;
44746;SDS011;30472;49.490;10.972;2023-08-21T03:54:06;24.40;;;21.88;;
44746;SDS011;30472;49.490;10.972;2023-08-21T03:56:32;25.45;;;22.75;;
44746;SDS011;30472;49.490;10.972;2023-08-21T03:58:57;23.50;;;21.00;;
44746;SDS011;30472;49.490;10.972;2023-08-21T04:01:23;23.47;;;20.87;;
44746;SDS011;30472;49.490;10.972;2023-08-21T04:03:48;22.65;;;20.35;;
44746;SDS011;30472;49.490;10.972;2023-08-21T04:06:14;26.45;;;21.17;;
44746;SDS011;30472;49.490;10.972;2023-08-21T04:08:39;23.20;;;20.88;;
44746;SDS011;30472;49.490;10.972;2023-08-21T04:11:05;22.30;;;20.17;;
44746;SDS011;30472;49.490;10.972;2023-08-21T04:13:31;21.17;;;18.98;;
44746;SDS011;30472;49.490;10.972;2023-08-21T04:15:56;21.58;;;19.27;;
44746;SDS011;30472;49.490;10.972;2023-08-21T04:18:22;25.15;;;22.55;;
44746;SDS011;30472;49.490;10.972;2023-08-21T04:20:48;24.98;;;22.48;;
44746;SDS011;30472;49.490;10.972;2023-08-21T04:23:14;25.80;;;22.55;;
44746;SDS011;30472;49.490;10.972;2023-08-21T04:25:40;23.10;;;20.50;;
44746;SDS011;30472;49.490;10.972;2023-08-21T04:28:06;24.42;;;21.92;;
44746;SDS011;30472;49.490;10.972;2023-08-21T04:30:32;25.05;;;22.60;;
44746;SDS011;30472;49.490;10.972;2023-08-21T04:32:58;23.10;;;20.70;;
44746;SDS011;30472;49.490;10.972;2023-08-21T04:35:24;24.58;;;22.08;;
44746;SDS011;30472;49.490;10.972;2023-08-21T04:37:50;23.33;;;21.08;;
44746;SDS011;30472;49.490;10.972;2023-08-21T04:40:16;24.65;;;22.08;;
44746;SDS011;30472;49.490;10.972;2023-08-21T04:42:42;24.70;;;20.98;;
44746;SDS011;30472;49.490;10.972;2023-08-21T04:45:09;26.58;;;22.52;;
44746;SDS011;30472;49.490;10.972;2023-08-21T04:47:34;27.95;;;22.45;;
44746;SDS011;30472;49.490;10.972;2023-08-21T04:50:00;24.10;;;21.55;;
44746;SDS011;30472;49.490;10.972;2023-08-21T04:52:26;22.90;;;20.60;;
44746;SDS011;30472;49.490;10.972;2023-08-21T04:54:52;23.75;;;21.35;;
44746;SDS011;30472;49.490;10.972;2023-08-21T04:57:18;23.05;;;20.70;;
44746;SDS011;30472;49.490;10.972;2023-08-21T04:59:45;25.30;;;22.52;;
44746;SDS011;30472;49.490;10.972;2023-08-21T05:02:12;25.23;;;21.48;;
44746;SDS011;30472;49.490;10.972;2023-08-21T05:04:37;24.77;;;22.20;;
44746;SDS011;30472;49.490;10.972;2023-08-21T05:07:03;23.92;;;21.60;;
44746;SDS011;30472;49.490;10.972;2023-08-21T05:09:29;23.70;;;20.33;;
44746;SDS011;30472;49.490;10.972;2023-08-21T05:11:55;23.42;;;21.13;;
44746;SDS011;30472;49.490;10.972;2023-08-21T05:14:24;24.30;;;21.63;;
44746;SDS011;30472;49.490;10.972;2023-08-21T05:16:50;22.60;;;20.27;;
44746;SDS011;30472;49.490;10.972;2023-08-21T05:19:15;22.30;;;19.90;;
44746;SDS011;30472;49.490;10.972;2023-08-21T05:21:41;25.58;;;21.48;;
44746;SDS011;30472;49.490;10.972;2023-08-21T05:24:07;23.20;;;20.88;;
44746;SDS011;30472;49.490;10.972;2023-08-21T05:26:35;24.35;;;21.73;;
44746;SDS011;30472;49.490;10.972;2023-08-21T05:29:01;26.20;;;20.98;;
44746;SDS011;30472;49.490;10.972;2023-08-21T05:31:27;23.75;;;21.13;;
44746;SDS011;30472;49.490;10.972;2023-08-21T05:33:52;22.63;;;20.23;;
44746;SDS011;30472;49.490;10.972;2023-08-21T05:36:18;23.15;;;20.83;;
44746;SDS011;30472;49.490;10.972;2023-08-21T05:38:43;22.55;;;20.40;;
44746;SDS011;30472;49.490;10.972;2023-08-21T05:41:09;22.80;;;20.50;;
44746;SDS011;30472;49.490;10.972;2023-08-21T05:43:35;23.88;;;20.77;;
44746;SDS011;30472;49.490;10.972;2023-08-21T05:46:00;22.77;;;20.38;;
44746;SDS011;30472;49.490;10.972;2023-08-21T05:48:26;23.27;;;20.70;;
44746;SDS011;30472;49.490;10.972;2023-08-21T05:50:52;22.83;;;20.08;;
44746;SDS011;30472;49.490;10.972;2023-08-21T05:53:18;21.80;;;19.60;;
44746;SDS011;30472;49.490;10.972;2023-08-21T05:55:44;23.60;;;21.20;;
44746;SDS011;30472;49.490;10.972;2023-08-21T05:58:09;25.55;;;20.40;;
44746;SDS011;30472;49.490;10.972;2023-08-21T06:00:35;20.80;;;18.60;;
44746;SDS011;30472;49.490;10.972;2023-08-21T06:03:03;23.67;;;20.05;;
44746;SDS011;30472;49.490;10.972;2023-08-21T06:05:29;20.75;;;18.85;;
44746;SDS011;30472;49.490;10.972;2023-08-21T06:07:54;21.02;;;18.60;;
44746;SDS011;30472;49.490;10.972;2023-08-21T06:10:20;21.10;;;18.70;;
44746;SDS011;30472;49.490;10.972;2023-08-21T06:12:45;20.65;;;18.63;;
44746;SDS011;30472;49.490;10.972;2023-08-21T06:15:11;20.20;;;17.95;;
44746;SDS011;30472;49.490;10.972;2023-08-21T06:17:37;20.90;;;18.90;;
44746;SDS011;30472;49.490;10.972;2023-08-21T06:20:03;21.08;;;18.75;;
44746;SDS011;30472;49.490;10.972;2023-08-21T06:22:31;20.48;;;18.35;;
44746;SDS011;30472;49.490;10.972;2023-08-21T06:24:57;20.20;;;18.10;;
44746;SDS011;30472;49.490;10.972;2023-08-21T06:27:22;20.98;;;18.98;;
44746;SDS011;30472;49.490;10.972;2023-08-21T06:29:48;19.58;;;17.77;;
44746;SDS011;30472;49.490;10.972;2023-08-21T06:32:14;18.20;;;16.50;;
44746;SDS011;30472;49.490;10.972;2023-08-21T06:34:39;19.23;;;17.50;;
44746;SDS011;30472;49.490;10.972;2023-08-21T06:37:05;21.33;;;19.23;;
44746;SDS011;30472;49.490;10.972;2023-08-21T06:39:31;20.45;;;18.50;;
44746;SDS011;30472;49.490;10.972;2023-08-21T06:41:56;20.50;;;18.48;;
44746;SDS011;30472;49.490;10.972;2023-08-21T06:44:22;19.52;;;17.65;;
44746;SDS011;30472;49.490;10.972;2023-08-21T06:46:47;19.90;;;18.05;;
44746;SDS011;30472;49.490;10.972;2023-08-21T06:49:13;19.00;;;16.92;;
44746;SDS011;30472;49.490;10.972;2023-08-21T06:51:39;20.02;;;17.42;;
44746;SDS011;30472;49.490;10.972;2023-08-21T06:54:04;19.52;;;17.52;;
44746;SDS011;30472;49.490;10.972;2023-08-21T06:56:30;18.92;;;17.13;;
44746;SDS011;30472;49.490;10.972;2023-08-21T06:58:55;18.10;;;16.40;;
44746;SDS011;30472;49.490;10.972;2023-08-21T07:01:21;19.02;;;17.13;;
44746;SDS011;30472;49.490;10.972;2023-08-21T07:03:47;17.80;;;16.05;;
44746;SDS011;30472;49.490;10.972;2023-08-21T07:06:12;18.25;;;16.55;;
44746;SDS011;30472;49.490;10.972;2023-08-21T07:08:38;17.33;;;15.82;;
44746;SDS011;30472;49.490;10.972;2023-08-21T07:11:05;17.33;;;15.68;;
44746;SDS011;30472;49.490;10.972;2023-08-21T07:13:33;18.23;;;16.42;;
44746;SDS011;30472;49.490;10.972;2023-08-21T07:15:59;19.15;;;15.32;;
44746;SDS011;30472;49.490;10.972;2023-08-21T07:18:27;17.38;;;15.68;;
44746;SDS011;30472;49.490;10.972;2023-08-21T07:20:53;19.05;;;16.25;;
44746;SDS011;30472;49.490;10.972;2023-08-21T07:23:18;18.48;;;16.77;;
44746;SDS011;30472;49.490;10.972;2023-08-21T07:25:44;19.00;;;17.10;;
44746;SDS011;30472;49.490;10.972;2023-08-21T07:28:10;16.58;;;14.98;;
44746;SDS011;30472;49.490;10.972;2023-08-21T07:30:36;16.83;;;15.25;;
44746;SDS011;30472;49.490;10.972;2023-08-21T07:33:03;16.20;;;14.60;;
44746;SDS011;30472;49.490;10.972;2023-08-21T07:35:30;15.43;;;14.05;;
44746;SDS011;30472;49.490;10.972;2023-08-21T07:37:55;15.15;;;13.65;;
44746;SDS011;30472;49.490;10.972;2023-08-21T07:40:21;20.55;;;14.18;;
44746;SDS011;30472;49.490;10.972;2023-08-21T07:42:46;14.50;;;13.20;;
44746;SDS011;30472;49.490;10.972;2023-08-21T07:45:12;14.73;;;13.13;;
44746;SDS011;30472;49.490;10.972;2023-08-21T07:47:37;15.82;;;12.88;;
44746;SDS011;30472;49.490;10.972;2023-08-21T07:50:04;13.10;;;11.95;;
44746;SDS011;30472;49.490;10.972;2023-08-21T07:52:31;14.02;;;12.52;;
44746;SDS011;30472;49.490;10.972;2023-08-21T07:54:56;14.10;;;12.10;;
44746;SDS011;30472;49.490;10.972;2023-08-21T07:57:24;14.45;;;11.60;;
44746;SDS011;30472;49.490;10.972;2023-08-21T07:59:49;12.48;;;10.70;;
44746;SDS011;30472;49.490;10.972;2023-08-21T08:02:15;11.73;;;10.52;;
44746;SDS011;30472;49.490;10.972;2023-08-21T08:04:41;12.52;;;11.05;;
44746;SDS011;30472;49.490;10.972;2023-08-21T08:07:08;12.43;;;11.23;;
44746;SDS011;30472;49.490;10.972;2023-08-21T08:09:33;12.27;;;11.05;;
44746;SDS011;30472;49.490;10.972;2023-08-21T08:11:59;13.00;;;11.90;;
44746;SDS011;30472;49.490;10.972;2023-08-21T08:14:24;12.93;;;11.02;;
44746;SDS011;30472;49.490;10.972;2023-08-21T08:16:50;13.38;;;11.20;;
44746;SDS011;30472;49.490;10.972;2023-08-21T08:19:16;15.70;;;11.77;;
44746;SDS011;30472;49.490;10.972;2023-08-21T08:21:41;14.25;;;12.55;;
44746;SDS011;30472;49.490;10.972;2023-08-21T08:24:07;12.88;;;11.68;;
44746;SDS011;30472;49.490;10.972;2023-08-21T08:26:32;14.18;;;12.68;;
44746;SDS011;30472;49.490;10.972;2023-08-21T08:28:58;13.30;;;11.70;;
44746;SDS011;30472;49.490;10.972;2023-08-21T08:31:24;13.52;;;12.23;;
44746;SDS011;30472;49.490;10.972;2023-08-21T08:33:50;13.48;;;12.07;;
44746;SDS011;30472;49.490;10.972;2023-08-21T08:36:16;12.10;;;10.90;;
44746;SDS011;30472;49.490;10.972;2023-08-21T08:38:41;12.55;;;11.40;;
44746;SDS011;30472;49.490;10.972;2023-08-21T08:41:16;13.30;;;11.85;;
44746;SDS011;30472;49.490;10.972;2023-08-21T08:43:50;12.05;;;11.00;;
44746;SDS011;30472;49.490;10.972;2023-08-21T08:46:16;13.82;;;12.40;;
44746;SDS011;30472;49.490;10.972;2023-08-21T08:48:43;12.90;;;11.55;;
44746;SDS011;30472;49.490;10.972;2023-08-21T08:51:08;13.38;;;12.18;;
44746;SDS011;30472;49.490;10.972;2023-08-21T08:53:34;14.05;;;12.85;;
44746;SDS011;30472;49.490;10.972;2023-08-21T08:56:01;13.45;;;12.25;;
44746;SDS011;30472;49.490;10.972;2023-08-21T08:58:28;13.32;;;12.13;;
44746;SDS011;30472;49.490;10.972;2023-08-21T09:00:54;13.38;;;12.07;;
44746;SDS011;30472;49.490;10.972;2023-08-21T09:03:20;12.10;;;11.10;;
44746;SDS011;30472;49.490;10.972;2023-08-21T09:05:45;13.95;;;12.70;;
44746;SDS011;30472;49.490;10.972;2023-08-21T09:08:13;13.55;;;12.32;;
44746;SDS011;30472;49.490;10.972;2023-08-21T09:10:39;12.35;;;11.25;;
44746;SDS011;30472;49.490;10.972;2023-08-21T09:13:16;13.82;;;11.63;;
44746;SDS011;30472;49.490;10.972;2023-08-21T09:15:47;12.95;;;11.63;;
44746;SDS011;30472;49.490;10.972;2023-08-21T09:18:14;12.45;;;11.23;;
44746;SDS011;30472;49.490;10.972;2023-08-21T09:20:40;12.95;;;11.75;;
44746;SDS011;30472;49.490;10.972;2023-08-21T09:23:06;12.73;;;11.73;;
44746;SDS011;30472;49.490;10.972;2023-08-21T09:25:36;12.32;;;11.32;;
44746;SDS011;30472;49.490;10.972;2023-08-21T09:28:04;12.13;;;10.80;;
44746;SDS011;30472;49.490;10.972;2023-08-21T09:30:42;15.00;;;11.77;;
44746;SDS011;30472;49.490;10.972;2023-08-21T09:33:09;12.70;;;11.43;;
44746;SDS011;30472;49.490;10.972;2023-08-21T09:35:34;12.70;;;11.55;;
44746;SDS011;30472;49.490;10.972;2023-08-21T09:38:00;12.25;;;11.18;;
44746;SDS011;30472;49.490;10.972;2023-08-21T09:40:26;13.68;;;10.57;;
44746;SDS011;30472;49.490;10.972;2023-08-21T09:42:55;11.05;;;10.20;;
44746;SDS011;30472;49.490;10.972;2023-08-21T09:45:25;13.55;;;11.15;;
44746;SDS011;30472;49.490;10.972;2023-08-21T09:47:53;10.18;;;9.45;;
44746;SDS011;30472;49.490;10.972;2023-08-21T09:50:19;10.13;;;9.07;;
44746;SDS011;30472;49.490;10.972;2023-08-21T09:52:45;10.70;;;9.75;;
44746;SDS011;30472;49.490;10.972;2023-08-21T09:55:12;10.73;;;9.30;;
44746;SDS011;30472;49.490;10.972;2023-08-21T09:57:39;9.52;;;8.63;;
44746;SDS011;30472;49.490;10.972;2023-08-21T10:00:06;9.93;;;8.85;;
44746;SDS011;30472;49.490;10.972;2023-08-21T10:02:51;10.73;;;9.60;;
44746;SDS011;30472;49.490;10.972;2023-08-21T10:05:19;9.50;;;8.55;;
44746;SDS011;30472;49.490;10.972;2023-08-21T10:07:46;9.57;;;8.77;;
44746;SDS011;30472;49.490;10.972;2023-08-21T10:10:13;10.68;;;8.65;;
44746;SDS011;30472;49.490;10.972;2023-08-21T10:12:40;9.15;;;8.30;;
44746;SDS011;30472;49.490;10.972;2023-08-21T10:15:06;10.10;;;7.75;;
44746;SDS011;30472;49.490;10.972;2023-08-21T10:17:34;10.57;;;7.20;;
44746;SDS011;30472;49.490;10.972;2023-08-21T10:20:04;10.48;;;7.55;;
44746;SDS011;30472;49.490;10.972;2023-08-21T10:25:02;8.07;;;7.22;;
44746;SDS011;30472;49.490;10.972;2023-08-21T10:27:31;9.13;;;6.93;;
44746;SDS011;30472;49.490;10.972;2023-08-21T10:29:59;7.82;;;6.90;;
44746;SDS011;30472;49.490;10.972;2023-08-21T10:32:24;8.70;;;6.75;;
44746;SDS011;30472;49.490;10.972;2023-08-21T10:34:53;6.85;;;6.25;;
44746;SDS011;30472;49.490;10.972;2023-08-21T10:37:19;7.70;;;6.93;;
44746;SDS011;30472;49.490;10.972;2023-08-21T10:39:54;8.35;;;7.18;;
44746;SDS011;30472;49.490;10.972;2023-08-21T10:42:36;7.00;;;6.38;;
44746;SDS011;30472;49.490;10.972;2023-08-21T10:45:09;8.90;;;6.90;;
44746;SDS011;30472;49.490;10.972;2023-08-21T10:47:36;8.85;;;5.50;;
44746;SDS011;30472;49.490;10.972;2023-08-21T10:50:05;5.43;;;4.93;;
44746;SDS011;30472;49.490;10.972;2023-08-21T10:52:36;7.18;;;6.07;;
44746;SDS011;30472;49.490;10.972;2023-08-21T10:55:04;10.73;;;6.57;;
44746;SDS011;30472;49.490;10.972;2023-08-21T10:57:31;10.10;;;6.60;;
44746;SDS011;30472;49.490;10.972;2023-08-21T11:00:16;8.82;;;6.75;;
44746;SDS011;30472;49.490;10.972;2023-08-21T11:02:44;9.27;;;6.55;;
44746;SDS011;30472;49.490;10.972;2023-08-21T11:05:11;9.45;;;5.75;;
44746;SDS011;30472;49.490;10.972;2023-08-21T11:07:42;6.00;;;5.40;;
44746;SDS011;30472;49.490;10.972;2023-08-21T11:10:10;5.47;;;4.95;;
44746;SDS011;30472;49.490;10.972;2023-08-21T11:12:38;6.13;;;5.20;;
44746;SDS011;30472;49.490;10.972;2023-08-21T11:15:12;8.75;;;6.05;;
44746;SDS011;30472;49.490;10.972;2023-08-21T11:17:38;6.25;;;5.72;;
44746;SDS011;30472;49.490;10.972;2023-08-21T11:20:03;5.97;;;5.47;;
44746;SDS011;30472;49.490;10.972;2023-08-21T11:22:31;8.80;;;5.70;;
44746;SDS011;30472;49.490;10.972;2023-08-21T11:24:57;6.55;;;5.93;;
44746;SDS011;30472;49.490;10.972;2023-08-21T11:27:23;7.32;;;6.47;;
44746;SDS011;30472;49.490;10.972;2023-08-21T11:29:49;7.32;;;5.82;;
44746;SDS011;30472;49.490;10.972;2023-08-21T11:32:16;7.53;;;5.57;;
44746;SDS011;30472;49.490;10.972;2023-08-21T11:37:16;7.47;;;6.35;;
44746;SDS011;30472;49.490;10.972;2023-08-21T11:39:44;9.40;;;6.28;;
44746;SDS011;30472;49.490;10.972;2023-08-21T11:42:12;9.82;;;6.35;;
44746;SDS011;30472;49.490;10.972;2023-08-21T11:44:42;10.25;;;6.20;;
44746;SDS011;30472;49.490;10.972;2023-08-21T11:47:09;7.57;;;6.47;;
44746;SDS011;30472;49.490;10.972;2023-08-21T11:49:39;7.13;;;5.88;;
44746;SDS011;30472;49.490;10.972;2023-08-21T11:52:06;9.07;;;5.68;;
44746;SDS011;30472;49.490;10.972;2023-08-21T11:54:35;7.30;;;5.95;;
44746;SDS011;30472;49.490;10.972;2023-08-21T11:57:06;8.32;;;5.57;;
44746;SDS011;30472;49.490;10.972;2023-08-21T11:59:38;7.15;;;5.45;;
44746;SDS011;30472;49.490;10.972;2023-08-21T12:02:09;6.72;;;5.80;;
44746;SDS011;30472;49.490;10.972;2023-08-21T12:04:35;6.40;;;5.45;;
44746;SDS011;30472;49.490;10.972;2023-08-21T12:07:01;7.13;;;6.22;;
44746;SDS011;30472;49.490;10.972;2023-08-21T12:09:27;10.57;;;6.38;;
44746;SDS011;30472;49.490;10.972;2023-08-21T12:11:52;7.15;;;5.35;;
44746;SDS011;30472;49.490;10.972;2023-08-21T12:14:18;6.40;;;5.90;;
44746;SDS011;30472;49.490;10.972;2023-08-21T12:16:44;7.55;;;5.82;;
44746;SDS011;30472;49.490;10.972;2023-08-21T12:19:09;7.60;;;5.25;;
44746;SDS011;30472;49.490;10.972;2023-08-21T12:21:36;6.68;;;5.63;;
44746;SDS011;30472;49.490;10.972;2023-08-21T12:24:03;10.10;;;5.53;;
44746;SDS011;30472;49.490;10.972;2023-08-21T12:26:30;6.95;;;5.93;;
44746;SDS011;30472;49.490;10.972;2023-08-21T12:28:56;8.35;;;5.38;;
44746;SDS011;30472;49.490;10.972;2023-08-21T12:31:21;7.68;;;5.32;;
44746;SDS011;30472;49.490;10.972;2023-08-21T12:33:47;5.20;;;4.80;;
44746;SDS011;30472;49.490;10.972;2023-08-21T12:36:12;6.75;;;5.30;;
44746;SDS011;30472;49.490;10.972;2023-08-21T12:38:38;8.20;;;5.10;;
44746;SDS011;30472;49.490;10.972;2023-08-21T12:41:03;8.20;;;4.60;;
44746;SDS011;30472;49.490;10.972;2023-08-21T12:43:30;8.63;;;5.18;;
44746;SDS011;30472;49.490;10.972;2023-08-21T12:45:56;6.50;;;4.80;;
44746;SDS011;30472;49.490;10.972;2023-08-21T12:48:21;7.55;;;4.85;;
44746;SDS011;30472;49.490;10.972;2023-08-21T12:50:47;5.47;;;4.55;;
44746;SDS011;30472;49.490;10.972;2023-08-21T12:53:13;7.50;;;4.90;;
44746;SDS011;30472;49.490;10.972;2023-08-21T12:55:38;8.07;;;4.57;;
44746;SDS011;30472;49.490;10.972;2023-08-21T12:58:04;8.25;;;5.20;;
44746;SDS011;30472;49.490;10.972;2023-08-21T13:00:29;13.45;;;4.47;;
44746;SDS011;30472;49.490;10.972;2023-08-21T13:02:57;5.93;;;4.68;;
44746;SDS011;30472;49.490;10.972;2023-08-21T13:05:23;5.93;;;4.85;;
44746;SDS011;30472;49.490;10.972;2023-08-21T13:07:48;6.35;;;4.88;;
44746;SDS011;30472;49.490;10.972;2023-08-21T13:10:14;7.63;;;5.03;;
44746;SDS011;30472;49.490;10.972;2023-08-21T13:12:39;6.65;;;4.80;;
44746;SDS011;30472;49.490;10.972;2023-08-21T13:15:05;8.63;;;5.30;;
44746;SDS011;30472;49.490;10.972;2023-08-21T13:17:32;7.20;;;4.78;;
44746;SDS011;30472;49.490;10.972;2023-08-21T13:19:58;5.93;;;4.70;;
44746;SDS011;30472;49.490;10.972;2023-08-21T13:22:24;6.80;;;4.53;;
44746;SDS011;30472;49.490;10.972;2023-08-21T13:24:49;7.57;;;4.60;;
44746;SDS011;30472;49.490;10.972;2023-08-21T13:27:15;11.63;;;5.15;;
44746;SDS011;30472;49.490;10.972;2023-08-21T13:29:41;7.15;;;5.03;;
44746;SDS011;30472;49.490;10.972;2023-08-21T13:32:06;8.40;;;5.10;;
44746;SDS011;30472;49.490;10.972;2023-08-21T13:34:32;9.00;;;5.03;;
44746;SDS011;30472;49.490;10.972;2023-08-21T13:36:57;8.00;;;4.38;;
44746;SDS011;30472;49.490;10.972;2023-08-21T13:39:23;5.88;;;5.05;;
44746;SDS011;30472;49.490;10.972;2023-08-21T13:41:51;7.07;;;4.32;;
44746;SDS011;30472;49.490;10.972;2023-08-21T13:44:17;7.38;;;4.47;;
44746;SDS011;30472;49.490;10.972;2023-08-21T13:46:42;8.00;;;4.70;;
44746;SDS011;30472;49.490;10.972;2023-08-21T13:49:08;7.30;;;4.75;;
44746;SDS011;30472;49.490;10.972;2023-08-21T13:51:34;5.80;;;5.30;;
44746;SDS011;30472;49.490;10.972;2023-08-21T13:54:00;6.75;;;5.10;;
44746;SDS011;30472;49.490;10.972;2023-08-21T13:56:26;6.45;;;5.38;;
44746;SDS011;30472;49.490;10.972;2023-08-21T13:58:51;5.60;;;5.10;;
44746;SDS011;30472;49.490;10.972;2023-08-21T14:01:17;6.00;;;5.13;;
44746;SDS011;30472;49.490;10.972;2023-08-21T14:03:42;7.28;;;4.78;;
44746;SDS011;30472;49.490;10.972;2023-08-21T14:06:08;9.02;;;5.20;;
44746;SDS011;30472;49.490;10.972;2023-08-21T14:08:36;5.95;;;4.30;;
44746;SDS011;30472;49.490;10.972;2023-08-21T14:11:02;6.68;;;4.70;;
44746;SDS011;30472;49.490;10.972;2023-08-21T14:13:28;8.05;;;4.68;;
44746;SDS011;30472;49.490;10.972;2023-08-21T14:15:53;7.78;;;5.40;;
44746;SDS011;30472;49.490;10.972;2023-08-21T14:18:20;8.30;;;4.90;;
44746;SDS011;30472;49.490;10.972;2023-08-21T14:20:45;7.35;;;4.68;;
44746;SDS011;30472;49.490;10.972;2023-08-21T14:23:11;6.93;;;4.72;;